createdAt,value
2016-05-20T00:00:10.001Z,0
2016-05-20T00:01:09.988Z,0
2016-05-20T00:02:09.835Z,0
2016-05-20T00:03:09.493Z,0
2016-05-20T00:04:09.949Z,0
2016-05-20T00:05:09.936Z,0
2016-05-20T00:06:09.923Z,0
2016-05-20T00:07:09.911Z,0
2016-05-20T00:08:09.898Z,0
2016-05-20T00:09:09.587Z,0
2016-05-20T00:10:09.715Z,0
2016-05-20T00:11:09.843Z,0
2016-05-20T00:12:09.830Z,0
2016-05-20T00:13:09.817Z,0
2016-05-20T00:14:09.663Z,0
2016-05-20T00:15:09.636Z,0
2016-05-20T00:16:09.622Z,0
2016-05-20T00:17:09.766Z,0
2016-05-20T00:18:09.769Z,0
2016-05-20T00:19:09.739Z,0
2016-05-20T00:20:09.727Z,0
2016-05-20T00:21:09.714Z,0
2016-05-20T00:22:09.701Z,0
2016-05-20T00:23:09.704Z,0
2016-05-20T00:24:09.691Z,0
2016-05-20T00:25:09.662Z,0
2016-05-20T00:26:09.649Z,0
2016-05-20T00:27:09.635Z,0
2016-05-20T00:28:09.638Z,0
2016-05-20T00:29:09.626Z,0
2016-05-20T00:30:09.613Z,0
2016-05-20T00:31:09.585Z,0
2016-05-20T00:32:09.571Z,0
2016-05-20T00:33:09.246Z,0
2016-05-20T00:34:09.562Z,0
2016-05-20T00:35:09.533Z,0
2016-05-20T00:36:09.364Z,0
2016-05-20T00:37:09.351Z,0
2016-05-20T00:38:09.494Z,0
2016-05-20T00:39:09.247Z,0
2016-05-20T00:40:09.468Z,0
2016-05-20T00:41:09.455Z,0
2016-05-20T00:42:09.301Z,0
2016-05-20T00:43:09.428Z,0
2016-05-20T00:44:09.416Z,0
2016-05-20T00:45:09.404Z,0
2016-05-20T00:46:09.250Z,0
2016-05-20T00:47:09.377Z,0
2016-05-20T00:48:09.364Z,0
2016-05-20T00:49:09.352Z,0
2016-05-20T00:50:09.339Z,0
2016-05-20T00:51:09.325Z,0
2016-05-20T00:52:09.000Z,0
2016-05-20T00:53:09.128Z,0
2016-05-20T00:54:09.505Z,0
2016-05-20T00:55:09.118Z,0
2016-05-20T00:56:09.246Z,0
2016-05-20T00:57:09.076Z,0
2016-05-20T00:58:09.094Z,0
2016-05-20T00:59:09.051Z,0
2016-05-20T01:00:09.210Z,0
2016-05-20T01:01:09.024Z,0
2016-05-20T01:02:09.012Z,0
2016-05-20T01:03:08.999Z,0
2016-05-20T01:04:09.143Z,0
2016-05-20T01:05:09.145Z,0
2016-05-20T01:06:08.820Z,0
2016-05-20T01:07:09.165Z,0
2016-05-20T01:08:08.934Z,0
2016-05-20T01:09:08.781Z,0
2016-05-20T01:10:09.064Z,0
2016-05-20T01:11:09.067Z,0
2016-05-20T01:12:08.866Z,0
2016-05-20T01:13:08.853Z,0
2016-05-20T01:14:08.842Z,0
2016-05-20T01:15:08.968Z,0
2016-05-20T01:16:08.971Z,0
2016-05-20T01:17:08.942Z,0
2016-05-20T01:18:08.945Z,0
2016-05-20T01:19:08.917Z,0
2016-05-20T01:20:08.903Z,0
2016-05-20T01:21:08.735Z,0
2016-05-20T01:22:08.877Z,0
2016-05-20T01:23:08.552Z,0
2016-05-20T01:24:08.930Z,0
2016-05-20T01:25:08.698Z,0
2016-05-20T01:26:08.841Z,0
2016-05-20T01:27:08.657Z,0
2016-05-20T01:28:08.644Z,0
2016-05-20T01:29:08.632Z,0
2016-05-20T01:30:08.790Z,0
2016-05-20T01:31:08.605Z,0
2016-05-20T01:32:08.749Z,0
2016-05-20T01:33:08.735Z,0
2016-05-20T01:34:08.723Z,0
2016-05-20T01:35:08.710Z,0
2016-05-20T01:36:08.696Z,0
2016-05-20T01:37:08.371Z,0
2016-05-20T01:38:08.671Z,0
2016-05-20T01:39:08.251Z,0
2016-05-20T01:40:08.645Z,0
2016-05-20T01:41:08.616Z,0
2016-05-20T01:42:08.448Z,0
2016-05-20T01:43:08.451Z,0
2016-05-20T01:44:08.592Z,0
2016-05-20T01:45:08.409Z,0
2016-05-20T01:46:08.552Z,0
2016-05-20T01:47:08.383Z,0
2016-05-20T01:48:08.401Z,0
2016-05-20T01:49:08.513Z,0
2016-05-20T01:50:08.344Z,0
2016-05-20T01:51:08.486Z,0
2016-05-20T01:52:08.474Z,0
2016-05-20T01:53:08.305Z,0
2016-05-20T01:54:08.619Z,0
2016-05-20T01:55:08.435Z,0
2016-05-20T01:56:08.266Z,0
2016-05-20T01:57:08.253Z,0
2016-05-20T01:58:08.396Z,0
2016-05-20T01:59:08.383Z,0
2016-05-20T02:00:08.215Z,0
2016-05-20T02:01:08.358Z,0
2016-05-20T02:02:08.329Z,0
2016-05-20T02:03:08.332Z,0
2016-05-20T02:04:08.303Z,0
2016-05-20T02:05:08.306Z,0
2016-05-20T02:06:08.293Z,0
2016-05-20T02:07:08.279Z,0
2016-05-20T02:08:08.095Z,0
2016-05-20T02:09:08.270Z,0
2016-05-20T02:10:08.070Z,0
2016-05-20T02:11:08.073Z,0
2016-05-20T02:12:08.201Z,0
2016-05-20T02:13:08.046Z,0
2016-05-20T02:14:08.174Z,0
2016-05-20T02:15:08.161Z,0
2016-05-20T02:16:07.991Z,0
2016-05-20T02:17:08.167Z,0
2016-05-20T02:18:08.138Z,0
2016-05-20T02:19:08.125Z,0
2016-05-20T02:20:08.112Z,0
2016-05-20T02:21:08.099Z,0
2016-05-20T02:22:08.086Z,0
2016-05-20T02:23:07.916Z,0
2016-05-20T02:24:08.108Z,0
2016-05-20T02:25:08.063Z,0
2016-05-20T02:26:07.863Z,0
2016-05-20T02:27:08.022Z,0
2016-05-20T02:28:08.008Z,0
2016-05-20T02:29:07.980Z,0
2016-05-20T02:30:07.810Z,0
2016-05-20T02:31:07.954Z,0
2016-05-20T02:32:07.957Z,0
2016-05-20T02:33:07.928Z,0
2016-05-20T02:34:07.915Z,0
2016-05-20T02:35:07.917Z,0
2016-05-20T02:36:07.904Z,0
2016-05-20T02:37:08.048Z,0
2016-05-20T02:38:07.613Z,0
2016-05-20T02:39:07.929Z,0
2016-05-20T02:40:07.869Z,0
2016-05-20T02:41:07.528Z,0
2016-05-20T02:42:07.687Z,0
2016-05-20T02:43:07.784Z,0
2016-05-20T02:44:07.598Z,0
2016-05-20T02:45:07.820Z,0
2016-05-20T02:46:07.603Z,0
2016-05-20T02:47:07.747Z,0
2016-05-20T02:48:07.578Z,0
2016-05-20T02:49:07.722Z,0
2016-05-20T02:50:07.708Z,0
2016-05-20T02:51:07.680Z,0
2016-05-20T02:52:07.511Z,0
2016-05-20T02:53:07.654Z,0
2016-05-20T02:54:07.656Z,0
2016-05-20T02:55:07.472Z,0
2016-05-20T02:56:07.459Z,0
2016-05-20T02:57:07.446Z,4
2016-05-20T02:58:07.589Z,4
2016-05-20T02:59:07.576Z,4
2016-05-20T03:00:07.563Z,4
2016-05-20T03:01:07.394Z,0
2016-05-20T03:02:07.538Z,4
2016-05-20T03:03:07.525Z,4
2016-05-20T03:04:07.354Z,4
2016-05-20T03:05:07.499Z,8
2016-05-20T03:06:07.485Z,4
2016-05-20T03:07:07.301Z,8
2016-05-20T03:08:07.476Z,8
2016-05-20T03:09:07.446Z,12
2016-05-20T03:10:07.278Z,12
2016-05-20T03:11:07.265Z,16
2016-05-20T03:12:07.392Z,16
2016-05-20T03:13:07.379Z,20
2016-05-20T03:14:07.366Z,20
2016-05-20T03:15:07.197Z,24
2016-05-20T03:16:07.341Z,28
2016-05-20T03:17:07.328Z,36
2016-05-20T03:18:07.314Z,36
2016-05-20T03:19:07.303Z,44
2016-05-20T03:20:07.289Z,52
2016-05-20T03:21:07.103Z,56
2016-05-20T03:22:07.263Z,68
2016-05-20T03:23:07.250Z,76
2016-05-20T03:24:07.768Z,84
2016-05-20T03:25:07.224Z,92
2016-05-20T03:26:07.040Z,100
2016-05-20T03:27:07.198Z,112
2016-05-20T03:28:07.169Z,124
2016-05-20T03:29:07.157Z,136
2016-05-20T03:30:07.144Z,152
2016-05-20T03:31:07.131Z,168
2016-05-20T03:32:06.805Z,188
2016-05-20T03:33:07.105Z,208
2016-05-20T03:34:06.935Z,228
2016-05-20T03:35:07.079Z,252
2016-05-20T03:36:07.066Z,276
2016-05-20T03:37:07.037Z,300
2016-05-20T03:38:06.868Z,328
2016-05-20T03:39:06.856Z,360
2016-05-20T03:40:07.015Z,400
2016-05-20T03:41:06.986Z,440
2016-05-20T03:42:06.817Z,476
2016-05-20T03:43:06.820Z,512
2016-05-20T03:44:06.651Z,564
2016-05-20T03:45:06.934Z,624
2016-05-20T03:46:06.921Z,696
2016-05-20T03:47:06.908Z,780
2016-05-20T03:48:06.880Z,868
2016-05-20T03:49:06.725Z,964
2016-05-20T03:50:06.869Z,1064
2016-05-20T03:51:06.872Z,1172
2016-05-20T03:52:06.859Z,1284
2016-05-20T03:53:06.815Z,1384
2016-05-20T03:54:06.803Z,1476
2016-05-20T03:55:06.977Z,1560
2016-05-20T03:56:06.652Z,1636
2016-05-20T03:57:06.780Z,1704
2016-05-20T03:58:06.750Z,1780
2016-05-20T03:59:06.738Z,1860
2016-05-20T04:00:06.724Z,1928
2016-05-20T04:01:06.711Z,1996
2016-05-20T04:02:06.714Z,2044
2016-05-20T04:03:06.686Z,2084
2016-05-20T04:04:06.673Z,2152
2016-05-20T04:05:06.660Z,2228
2016-05-20T04:06:06.632Z,2304
2016-05-20T04:07:06.635Z,2396
2016-05-20T04:08:06.621Z,2484
2016-05-20T04:09:06.920Z,2584
2016-05-20T04:10:06.596Z,2696
2016-05-20T04:11:06.567Z,2804
2016-05-20T04:12:06.570Z,2912
2016-05-20T04:13:06.556Z,3044
2016-05-20T04:14:06.543Z,3244
2016-05-20T04:15:06.531Z,3468
2016-05-20T04:16:06.362Z,3676
2016-05-20T04:17:06.490Z,3864
2016-05-20T04:18:06.320Z,4036
2016-05-20T04:19:06.479Z,4192
2016-05-20T04:20:06.467Z,4336
2016-05-20T04:21:06.437Z,4444
2016-05-20T04:22:06.425Z,4604
2016-05-20T04:23:06.255Z,4712
2016-05-20T04:24:06.836Z,4788
2016-05-20T04:25:06.245Z,4924
2016-05-20T04:26:06.372Z,5108
2016-05-20T04:27:06.375Z,5364
2016-05-20T04:28:06.346Z,5584
2016-05-20T04:29:06.333Z,5816
2016-05-20T04:30:06.181Z,6056
2016-05-20T04:31:06.152Z,6264
2016-05-20T04:32:06.295Z,6496
2016-05-20T04:33:06.282Z,6688
2016-05-20T04:34:06.269Z,6844
2016-05-20T04:35:06.272Z,7064
2016-05-20T04:36:06.087Z,7232
2016-05-20T04:37:06.230Z,7344
2016-05-20T04:38:06.060Z,7468
2016-05-20T04:39:06.205Z,7540
2016-05-20T04:40:05.817Z,7492
2016-05-20T04:41:06.023Z,7516
2016-05-20T04:42:06.166Z,8068
2016-05-20T04:43:06.168Z,8836
2016-05-20T04:44:05.984Z,8700
2016-05-20T04:45:05.987Z,8016
2016-05-20T04:46:06.114Z,8152
2016-05-20T04:47:05.960Z,8508
2016-05-20T04:48:06.103Z,9096
2016-05-20T04:49:06.090Z,9728
2016-05-20T04:50:06.078Z,9184
2016-05-20T04:51:06.064Z,8744
2016-05-20T04:52:06.037Z,8340
2016-05-20T04:53:06.039Z,8604
2016-05-20T04:54:06.042Z,8400
2016-05-20T04:55:06.264Z,8520
2016-05-20T04:56:06.016Z,8896
2016-05-20T04:57:06.002Z,9496
2016-05-20T04:58:05.833Z,10136
2016-05-20T04:59:05.977Z,10200
2016-05-20T05:00:05.980Z,9468
2016-05-20T05:01:05.951Z,9044
2016-05-20T05:02:05.939Z,8228
2016-05-20T05:03:05.940Z,8352
2016-05-20T05:04:05.927Z,8312
2016-05-20T05:05:05.916Z,8028
2016-05-20T05:06:05.902Z,8004
2016-05-20T05:07:05.905Z,7420
2016-05-20T05:08:05.735Z,7360
2016-05-20T05:09:05.879Z,7352
2016-05-20T05:10:06.616Z,7352
2016-05-20T05:11:05.853Z,7324
2016-05-20T05:12:05.840Z,7324
2016-05-20T05:13:05.842Z,7304
2016-05-20T05:14:05.829Z,7320
2016-05-20T05:15:05.817Z,7524
2016-05-20T05:16:05.648Z,8244
2016-05-20T05:17:05.635Z,7456
2016-05-20T05:18:05.653Z,7464
2016-05-20T05:19:05.781Z,7392
2016-05-20T05:20:05.768Z,7408
2016-05-20T05:21:05.756Z,7596
2016-05-20T05:22:05.758Z,7872
2016-05-20T05:23:05.572Z,8144
2016-05-20T05:24:05.732Z,8304
2016-05-20T05:25:05.766Z,8324
2016-05-20T05:26:05.705Z,8224
2016-05-20T05:27:05.708Z,8092
2016-05-20T05:28:05.524Z,8068
2016-05-20T05:29:05.511Z,8000
2016-05-20T05:30:05.655Z,7876
2016-05-20T05:31:05.657Z,7788
2016-05-20T05:32:05.628Z,7756
2016-05-20T05:33:05.631Z,7856
2016-05-20T05:34:05.619Z,8008
2016-05-20T05:35:05.605Z,8136
2016-05-20T05:36:05.280Z,8224
2016-05-20T05:37:05.423Z,8168
2016-05-20T05:38:05.410Z,8028
2016-05-20T05:39:05.554Z,7956
2016-05-20T05:40:05.415Z,8096
2016-05-20T05:41:05.544Z,8296
2016-05-20T05:42:05.530Z,8364
2016-05-20T05:43:05.517Z,8260
2016-05-20T05:44:05.505Z,8120
2016-05-20T05:45:05.490Z,7968
2016-05-20T05:46:05.494Z,7728
2016-05-20T05:47:05.465Z,7448
2016-05-20T05:48:05.312Z,7000
2016-05-20T05:49:05.455Z,6440
2016-05-20T05:50:05.646Z,6064
2016-05-20T05:51:05.445Z,5876
2016-05-20T05:52:05.417Z,5816
2016-05-20T05:53:05.247Z,5768
2016-05-20T05:54:05.406Z,5844
2016-05-20T05:55:05.472Z,6268
2016-05-20T05:56:05.395Z,6892
2016-05-20T05:57:05.368Z,7452
2016-05-20T05:58:05.355Z,8072
2016-05-20T05:59:05.371Z,8420
2016-05-20T06:00:05.230Z,8268
2016-05-20T06:01:05.261Z,8052
2016-05-20T06:02:05.466Z,8032
2016-05-20T06:03:05.341Z,8628
2016-05-20T06:04:05.519Z,9880
2016-05-20T06:05:05.523Z,11180
2016-05-20T06:06:05.526Z,11836
2016-05-20T06:07:05.530Z,12552
2016-05-20T06:08:05.549Z,12736
2016-05-20T06:09:05.393Z,12040
2016-05-20T06:10:06.291Z,11544
2016-05-20T06:11:05.377Z,11144
2016-05-20T06:12:05.371Z,11236
2016-05-20T06:13:05.519Z,11732
2016-05-20T06:14:05.511Z,12148
2016-05-20T06:15:05.500Z,11940
2016-05-20T06:16:05.504Z,11900
2016-05-20T06:17:05.494Z,12784
2016-05-20T06:18:05.170Z,14060
2016-05-20T06:19:05.332Z,14824
2016-05-20T06:20:05.474Z,15588
2016-05-20T06:21:05.448Z,16444
2016-05-20T06:22:05.309Z,16356
2016-05-20T06:23:05.283Z,15308
2016-05-20T06:24:05.427Z,14140
2016-05-20T06:25:06.038Z,13360
2016-05-20T06:26:05.105Z,13432
2016-05-20T06:27:05.264Z,14572
2016-05-20T06:28:05.376Z,16320
2016-05-20T06:29:05.395Z,17028
2016-05-20T06:30:05.381Z,16712
2016-05-20T06:31:05.228Z,15836
2016-05-20T06:32:05.356Z,14932
2016-05-20T06:33:05.343Z,14704
2016-05-20T06:34:05.330Z,15088
2016-05-20T06:35:04.848Z,15352
2016-05-20T06:36:05.148Z,15252
2016-05-20T06:37:05.151Z,14784
2016-05-20T06:38:04.981Z,14724
2016-05-20T06:39:05.281Z,15024
2016-05-20T06:40:05.269Z,15336
2016-05-20T06:41:05.099Z,15184
2016-05-20T06:42:05.257Z,14164
2016-05-20T06:43:05.230Z,13812
2016-05-20T06:44:05.232Z,13848
2016-05-20T06:45:05.063Z,13624
2016-05-20T06:46:05.206Z,13668
2016-05-20T06:47:05.209Z,14024
2016-05-20T06:48:05.196Z,15300
2016-05-20T06:49:04.870Z,17500
2016-05-20T06:50:05.170Z,19488
2016-05-20T06:51:05.157Z,20224
2016-05-20T06:52:05.160Z,21568
2016-05-20T06:53:05.146Z,23008
2016-05-20T06:54:05.134Z,24864
2016-05-20T06:55:05.012Z,27520
2016-05-20T06:56:05.124Z,30656
2016-05-20T06:57:05.111Z,31232
2016-05-20T06:58:05.098Z,30304
2016-05-20T07:01:04.918Z,29088
2016-05-20T07:02:05.078Z,29504
2016-05-20T07:03:05.048Z,30880
2016-05-20T07:04:04.911Z,33440
2016-05-20T07:05:04.882Z,38208
2016-05-20T07:06:04.869Z,41600
2016-05-20T07:07:04.856Z,43296
2016-05-20T07:08:05.016Z,43616
2016-05-20T07:09:05.018Z,41408
2016-05-20T07:10:04.833Z,39168
2016-05-20T07:11:05.024Z,35680
2016-05-20T07:12:05.011Z,33824
2016-05-20T07:13:04.982Z,32896
2016-05-20T07:14:04.813Z,28608
2016-05-20T07:15:04.988Z,26944
2016-05-20T07:16:04.975Z,26560
2016-05-20T07:17:04.977Z,26112
2016-05-20T07:18:04.949Z,25408
2016-05-20T07:19:04.967Z,23680
2016-05-20T07:20:04.954Z,21952
2016-05-20T07:21:04.784Z,21056
2016-05-20T07:22:04.912Z,21568
2016-05-20T07:23:04.915Z,21440
2016-05-20T07:24:04.762Z,20032
2016-05-20T07:25:05.217Z,18036
2016-05-20T07:26:04.907Z,16604
2016-05-20T07:27:04.738Z,15892
2016-05-20T07:28:04.882Z,15240
2016-05-20T07:29:04.884Z,14336
2016-05-20T07:30:04.715Z,14172
2016-05-20T07:31:04.859Z,14444
2016-05-20T07:32:04.846Z,14932
2016-05-20T07:33:04.848Z,15532
2016-05-20T07:34:04.836Z,16240
2016-05-20T07:35:04.682Z,16752
2016-05-20T07:36:04.669Z,16916
2016-05-20T07:37:04.811Z,17160
2016-05-20T07:38:04.799Z,17344
2016-05-20T07:39:04.786Z,18152
2016-05-20T07:40:04.945Z,19584
2016-05-20T07:41:04.791Z,20448
2016-05-20T07:42:04.622Z,20480
2016-05-20T07:43:04.766Z,20928
2016-05-20T07:44:04.769Z,21728
2016-05-20T07:45:04.755Z,22112
2016-05-20T07:46:04.743Z,22208
2016-05-20T07:47:04.730Z,21536
2016-05-20T07:48:04.732Z,19456
2016-05-20T07:49:04.704Z,18428
2016-05-20T07:50:04.707Z,17900
2016-05-20T07:51:04.710Z,17312
2016-05-20T07:52:04.697Z,17196
2016-05-20T07:53:04.698Z,16372
2016-05-20T07:54:04.670Z,15140
2016-05-20T07:55:05.329Z,14344
2016-05-20T07:56:04.520Z,13616
2016-05-20T07:57:04.647Z,13116
2016-05-20T07:58:04.650Z,12848
2016-05-20T07:59:04.637Z,12652
2016-05-20T08:00:05.546Z,12196
2016-05-20T08:01:04.689Z,12264
2016-05-20T08:02:04.457Z,12616
2016-05-20T08:03:04.460Z,13664
2016-05-20T08:04:04.603Z,15368
2016-05-20T08:05:04.590Z,16452
2016-05-20T08:06:04.578Z,16488
2016-05-20T08:07:04.564Z,16764
2016-05-20T08:08:04.255Z,17160
2016-05-20T08:09:04.758Z,16968
2016-05-20T08:10:04.667Z,16332
2016-05-20T08:11:05.481Z,16268
2016-05-20T08:12:04.375Z,16360
2016-05-20T08:13:04.519Z,16324
2016-05-20T08:14:04.349Z,16204
2016-05-20T08:15:04.352Z,15764
2016-05-20T08:16:04.339Z,15708
2016-05-20T08:17:04.358Z,15540
2016-05-20T08:18:04.469Z,14940
2016-05-20T08:19:04.316Z,14692
2016-05-20T08:20:09.787Z,14564
2016-05-20T08:21:06.962Z,14672
2016-05-20T08:22:04.449Z,15180
2016-05-20T08:23:07.842Z,15500
2016-05-20T08:24:04.266Z,15732
2016-05-20T08:25:13.441Z,16020
2016-05-20T08:26:04.632Z,16012
2016-05-20T08:27:04.399Z,16496
2016-05-20T08:28:04.246Z,16656
2016-05-20T08:29:04.389Z,16944
2016-05-20T08:30:04.064Z,17524
2016-05-20T08:31:04.364Z,18112
2016-05-20T08:32:04.350Z,19840
2016-05-20T08:33:04.338Z,21920
2016-05-20T08:34:04.184Z,24704
2016-05-20T08:35:11.000Z,26432
2016-05-20T08:36:04.330Z,26976
2016-05-20T08:37:04.333Z,27904
2016-05-20T08:38:04.304Z,29984
2016-05-20T08:39:04.291Z,32160
2016-05-20T08:40:04.106Z,35008
2016-05-20T08:41:04.578Z,36672
2016-05-20T08:42:04.269Z,35840
2016-05-20T08:43:03.959Z,35328
2016-05-20T08:44:04.258Z,34656
2016-05-20T08:45:04.244Z,33632
2016-05-20T08:46:04.747Z,32064
2016-05-20T08:47:04.250Z,30560
2016-05-20T08:48:04.222Z,28928
2016-05-20T08:49:04.209Z,26400
2016-05-20T08:50:04.196Z,23840
2016-05-20T08:51:04.043Z,21760
2016-05-20T08:52:04.202Z,20448
2016-05-20T08:53:04.188Z,19840
2016-05-20T08:54:04.176Z,20288
2016-05-20T08:55:04.381Z,20544
2016-05-20T08:56:04.166Z,20864
2016-05-20T08:57:04.012Z,21728
2016-05-20T08:58:04.139Z,23008
2016-05-20T08:59:04.002Z,24704
2016-05-20T09:00:04.129Z,28032
2016-05-20T09:01:04.132Z,31744
2016-05-20T09:02:04.056Z,34688
2016-05-20T09:03:03.950Z,36480
2016-05-20T09:04:04.109Z,33856
2016-05-20T09:05:04.143Z,33504
2016-05-20T09:06:04.504Z,33728
2016-05-20T09:07:04.085Z,32032
2016-05-20T09:08:04.073Z,33824
2016-05-20T09:09:04.591Z,40800
2016-05-20T09:10:03.797Z,47584
2016-05-20T09:11:04.081Z,49760
2016-05-20T09:12:04.052Z,51104
2016-05-20T09:13:03.898Z,62016
2016-05-20T09:14:04.042Z,71008
2016-05-20T09:15:04.028Z,64800
2016-05-20T09:16:04.031Z,54048
2016-05-20T09:17:03.894Z,55424
2016-05-20T09:18:04.022Z,54624
2016-05-20T09:19:04.025Z,47520
2016-05-20T09:20:04.011Z,51968
2016-05-20T09:21:03.874Z,73536
2016-05-20T09:22:04.063Z,61024
2016-05-20T09:23:04.004Z,62176
2016-05-20T09:24:03.850Z,77600
2016-05-20T09:25:03.884Z,50592
2016-05-20T09:26:03.996Z,52384
2016-05-20T09:27:03.889Z,92640
2016-05-20T09:28:03.986Z,84384
2016-05-20T09:29:03.988Z,88224
2016-05-20T09:30:03.976Z,100672
2016-05-20T09:31:04.010Z,104480
2016-05-20T09:32:03.653Z,51712
2016-05-20T09:33:03.999Z,108480
2016-05-20T09:34:08.924Z,47296
2016-05-20T09:35:03.848Z,46336
2016-05-20T09:36:03.835Z,102368
2016-05-20T09:37:03.978Z,74688
2016-05-20T09:38:03.840Z,104256
2016-05-20T09:39:03.812Z,53088
2016-05-20T09:40:04.830Z,44128
2016-05-20T09:41:04.395Z,65248
2016-05-20T09:42:03.805Z,108480
2016-05-20T09:43:03.808Z,97184
2016-05-20T09:44:03.967Z,106944
2016-05-20T09:45:03.953Z,55776
2016-05-20T09:46:03.816Z,106880
2016-05-20T09:47:03.974Z,103648
2016-05-20T09:48:03.805Z,100128
2016-05-20T09:49:03.964Z,60160
2016-05-20T09:50:03.795Z,75456
2016-05-20T09:51:03.985Z,62176
2016-05-20T09:52:03.816Z,58496
2016-05-20T09:53:03.975Z,46816
2016-05-20T09:54:03.821Z,61952
2016-05-20T09:55:04.308Z,40192
2016-05-20T09:56:03.951Z,36672
2016-05-20T09:57:03.986Z,39296
2016-05-20T09:58:03.957Z,43264
2016-05-20T09:59:03.818Z,47616
2016-05-20T10:00:03.806Z,44768
2016-05-20T10:01:03.965Z,90880
2016-05-20T10:02:03.952Z,45728
2016-05-20T10:03:03.940Z,45280
2016-05-20T10:04:03.942Z,53440
2016-05-20T10:05:03.804Z,59648
2016-05-20T10:06:03.948Z,41824
2016-05-20T10:07:03.951Z,43840
2016-05-20T10:08:03.937Z,50528
2016-05-20T10:09:03.940Z,50656
2016-05-20T10:10:04.114Z,53952
2016-05-20T10:11:03.804Z,51360
2016-05-20T10:12:03.932Z,59456
2016-05-20T10:13:03.934Z,47808
2016-05-20T10:14:03.922Z,51488
2016-05-20T10:15:03.956Z,46080
2016-05-20T10:16:03.927Z,119040
2016-05-20T10:17:03.945Z,49248
2016-05-20T10:18:03.917Z,43232
2016-05-20T10:19:03.763Z,36000
2016-05-20T10:20:03.907Z,34048
2016-05-20T10:21:03.785Z,35520
2016-05-20T10:22:03.912Z,38272
2016-05-20T10:23:03.946Z,41824
2016-05-20T10:24:03.761Z,40416
2016-05-20T10:25:04.827Z,40288
2016-05-20T10:26:03.907Z,41696
2016-05-20T10:27:03.894Z,42336
2016-05-20T10:28:03.896Z,86624
2016-05-20T10:29:03.899Z,43840
2016-05-20T10:30:03.918Z,64480
2016-05-20T10:31:03.733Z,64416
2016-05-20T10:32:03.907Z,81504
2016-05-20T10:33:03.738Z,39904
2016-05-20T10:34:03.866Z,34208
2016-05-20T10:35:03.932Z,35584
2016-05-20T10:36:03.887Z,37056
2016-05-20T10:37:04.015Z,40640
2016-05-20T10:38:03.971Z,45504
2016-05-20T10:39:03.864Z,35712
2016-05-20T10:40:04.351Z,33952
2016-05-20T10:41:03.870Z,37792
2016-05-20T10:42:03.700Z,34112
2016-05-20T10:43:03.860Z,33568
2016-05-20T10:44:03.705Z,39328
2016-05-20T10:45:03.693Z,48352
2016-05-20T10:46:03.728Z,55456
2016-05-20T10:47:03.964Z,46176
2016-05-20T10:48:03.842Z,40640
2016-05-20T10:49:03.845Z,37504
2016-05-20T10:50:03.675Z,32288
2016-05-20T10:51:03.677Z,28480
2016-05-20T10:52:03.790Z,27776
2016-05-20T10:53:03.667Z,28544
2016-05-20T10:54:03.827Z,28992
2016-05-20T10:55:04.063Z,29696
2016-05-20T10:56:03.957Z,29440
2016-05-20T10:57:03.819Z,26528
2016-05-20T10:58:03.853Z,23872
2016-05-20T10:59:03.809Z,22752
2016-05-20T11:00:03.779Z,23744
2016-05-20T11:01:03.782Z,27072
2016-05-20T11:02:03.645Z,27328
2016-05-20T11:03:03.929Z,27360
2016-05-20T11:04:03.822Z,28352
2016-05-20T11:05:03.793Z,31616
2016-05-20T11:06:03.765Z,34912
2016-05-20T11:07:03.612Z,38432
2016-05-20T11:08:03.676Z,43296
2016-05-20T11:09:03.757Z,50208
2016-05-20T11:10:06.432Z,51424
2016-05-20T11:11:03.779Z,61568
2016-05-20T11:12:03.751Z,83008
2016-05-20T11:13:03.753Z,61088
2016-05-20T11:14:03.739Z,50592
2016-05-20T11:15:03.789Z,50848
2016-05-20T11:16:03.604Z,55968
2016-05-20T11:17:03.748Z,53408
2016-05-20T11:18:03.609Z,59072
2016-05-20T11:19:03.566Z,48256
2016-05-20T11:20:03.834Z,48608
2016-05-20T11:21:03.789Z,72672
2016-05-20T11:22:03.730Z,62464
2016-05-20T11:23:03.560Z,102976
2016-05-20T11:24:03.719Z,65952
2016-05-20T11:25:03.628Z,62784
2016-05-20T11:26:03.553Z,62912
2016-05-20T11:27:03.712Z,90496
2016-05-20T11:28:03.824Z,81120
2016-05-20T11:29:03.858Z,50048
2016-05-20T11:30:03.533Z,47520
2016-05-20T11:31:03.692Z,52544
2016-05-20T11:32:03.772Z,50912
2016-05-20T11:33:03.682Z,45792
2016-05-20T11:34:03.699Z,38656
2016-05-20T11:35:03.687Z,36672
2016-05-20T11:36:03.690Z,39520
2016-05-20T11:37:03.692Z,43104
2016-05-20T11:38:03.695Z,72544
2016-05-20T11:39:03.525Z,80928
2016-05-20T11:40:03.778Z,92864
2016-05-20T11:41:03.671Z,61408
2016-05-20T11:42:03.674Z,48672
2016-05-20T11:43:03.692Z,42560
2016-05-20T11:44:03.665Z,33600
2016-05-20T11:45:03.667Z,28256
2016-05-20T11:46:03.669Z,26432
2016-05-20T11:47:03.656Z,28480
2016-05-20T11:48:03.659Z,31488
2016-05-20T11:49:03.662Z,32000
2016-05-20T11:50:03.680Z,28832
2016-05-20T11:51:03.653Z,28768
2016-05-20T11:52:03.654Z,31168
2016-05-20T11:53:03.657Z,31488
2016-05-20T11:54:03.644Z,30752
2016-05-20T11:55:04.303Z,31328
2016-05-20T11:56:03.478Z,31488
2016-05-20T11:57:03.636Z,29600
2016-05-20T11:58:03.624Z,30240
2016-05-20T11:59:03.470Z,34016
2016-05-20T12:00:03.644Z,36640
2016-05-20T12:01:03.632Z,40480
2016-05-20T12:02:03.619Z,54464
2016-05-20T12:03:03.605Z,54560
2016-05-20T12:04:03.624Z,55008
2016-05-20T12:05:03.721Z,55648
2016-05-20T12:06:03.676Z,59488
2016-05-20T12:07:03.601Z,65568
2016-05-20T12:08:03.447Z,65152
2016-05-20T12:09:03.622Z,62944
2016-05-20T12:10:03.609Z,62688
2016-05-20T12:11:03.440Z,66816
2016-05-20T12:12:03.443Z,62912
2016-05-20T12:13:04.540Z,65792
2016-05-20T12:14:03.604Z,64384
2016-05-20T12:15:03.325Z,68960
2016-05-20T12:16:03.578Z,59776
2016-05-20T12:17:03.628Z,55552
2016-05-20T12:18:04.240Z,48448
2016-05-20T12:19:03.586Z,43424
2016-05-20T12:20:03.573Z,41216
2016-05-20T12:21:03.575Z,38336
2016-05-20T12:22:03.578Z,33760
2016-05-20T12:23:03.581Z,29792
2016-05-20T12:24:03.506Z,26048
2016-05-20T12:25:03.759Z,23776
2016-05-20T12:26:03.574Z,22784
2016-05-20T12:27:03.561Z,21824
2016-05-20T12:28:03.611Z,20256
2016-05-20T12:29:03.644Z,19328
2016-05-20T12:30:03.288Z,18252
2016-05-20T12:31:03.572Z,18496
2016-05-20T12:32:03.543Z,19936
2016-05-20T12:33:03.390Z,22880
2016-05-20T12:34:03.408Z,27712
2016-05-20T12:35:03.552Z,33088
2016-05-20T12:36:03.554Z,32448
2016-05-20T12:37:03.369Z,31936
2016-05-20T12:38:03.543Z,31392
2016-05-20T12:39:03.391Z,33312
2016-05-20T12:40:04.674Z,37280
2016-05-20T12:41:03.598Z,37568
2016-05-20T12:42:03.508Z,33664
2016-05-20T12:43:03.526Z,30368
2016-05-20T12:44:03.357Z,28608
2016-05-20T12:45:03.515Z,30112
2016-05-20T12:46:03.503Z,36192
2016-05-20T12:47:03.192Z,43392
2016-05-20T12:48:03.492Z,55488
2016-05-20T12:49:03.198Z,70208
2016-05-20T12:50:03.482Z,64704
2016-05-20T12:51:03.329Z,67168
2016-05-20T12:52:03.316Z,62240
2016-05-20T12:53:03.475Z,69408
2016-05-20T12:54:03.478Z,60416
2016-05-20T12:55:03.903Z,52256
2016-05-20T12:56:03.466Z,49376
2016-05-20T12:57:03.313Z,47904
2016-05-20T12:58:03.458Z,48736
2016-05-20T12:59:03.460Z,50720
2016-05-20T13:00:03.463Z,52800
2016-05-20T13:01:03.449Z,54720
2016-05-20T13:02:03.452Z,60096
2016-05-20T13:03:03.299Z,65664
2016-05-20T13:04:03.458Z,71168
2016-05-20T13:05:03.460Z,69248
2016-05-20T13:06:03.446Z,64992
2016-05-20T13:07:03.450Z,58208
2016-05-20T13:08:03.452Z,55616
2016-05-20T13:09:03.282Z,61088
2016-05-20T13:10:03.615Z,62592
2016-05-20T13:11:03.429Z,63296
2016-05-20T13:12:03.276Z,61600
2016-05-20T13:13:03.419Z,72832
2016-05-20T13:14:03.421Z,74336
2016-05-20T13:15:03.440Z,67424
2016-05-20T13:16:03.412Z,70752
2016-05-20T13:17:03.429Z,78848
2016-05-20T13:18:03.526Z,60256
2016-05-20T13:19:03.420Z,76864
2016-05-20T13:20:03.251Z,79616
2016-05-20T13:21:03.253Z,89344
2016-05-20T13:22:03.255Z,89248
2016-05-20T13:23:03.446Z,92832
2016-05-20T13:24:03.261Z,92160
2016-05-20T13:25:03.263Z,84704
2016-05-20T13:26:03.267Z,73408